createdAt,value
2023-03-06T00:00:55.829Z,29.90
2023-03-06T00:03:24.600Z,34.00
2023-03-06T00:05:51.962Z,36.08
2023-03-06T00:08:21.542Z,37.90
2023-03-06T00:10:51.797Z,35.95
2023-03-06T00:13:23.659Z,34.95
2023-03-06T00:16:07.928Z,40.97
2023-03-06T00:18:35.245Z,34.13
2023-03-06T00:21:31.744Z,28.42
2023-03-06T00:24:03.601Z,28.45
2023-03-06T00:26:31.237Z,24.70
2023-03-06T00:28:59.676Z,28.58
2023-03-06T00:31:31.716Z,29.85
2023-03-06T00:34:00.687Z,27.77
2023-03-06T00:36:30.946Z,26.40
2023-03-06T00:38:58.327Z,27.60
2023-03-06T00:41:25.475Z,25.17
2023-03-06T00:43:54.930Z,21.67
2023-03-06T00:46:22.203Z,23.33
2023-03-06T00:48:52.588Z,27.35
2023-03-06T00:51:21.974Z,23.33
2023-03-06T00:53:49.282Z,25.55
2023-03-06T00:56:18.918Z,20.75
2023-03-06T00:58:48.601Z,21.58
2023-03-06T01:01:15.858Z,26.30
2023-03-06T01:03:43.696Z,22.38
2023-03-06T01:06:10.915Z,23.60
2023-03-06T01:08:38.255Z,24.95
2023-03-06T01:11:05.650Z,25.73
2023-03-06T01:13:32.828Z,24.92
2023-03-06T01:16:11.957Z,23.05
2023-03-06T01:18:42.491Z,25.70
2023-03-06T01:21:09.711Z,25.05
2023-03-06T01:23:37.097Z,26.17
2023-03-06T01:26:05.110Z,25.38
2023-03-06T01:28:34.598Z,21.85
2023-03-06T01:31:02.839Z,26.65
2023-03-06T01:33:39.827Z,23.65
2023-03-06T01:36:11.709Z,28.40
2023-03-06T01:38:39.915Z,22.17
2023-03-06T01:41:08.000Z,25.88
2023-03-06T01:43:37.789Z,23.58
2023-03-06T01:46:24.091Z,22.88
2023-03-06T01:48:57.533Z,21.70
2023-03-06T01:53:55.719Z,31.80
2023-03-06T01:56:24.407Z,27.52
2023-03-06T01:58:52.216Z,25.20
2023-03-06T02:01:20.393Z,28.05
2023-03-06T02:03:50.092Z,26.48
2023-03-06T02:06:20.138Z,28.48
2023-03-06T02:08:50.154Z,27.83
2023-03-06T02:11:22.149Z,28.45
2023-03-06T02:13:52.675Z,27.17
2023-03-06T02:16:26.842Z,29.42
2023-03-06T02:18:54.543Z,27.00
2023-03-06T02:21:27.625Z,25.05
2023-03-06T02:24:20.070Z,32.38
2023-03-06T02:26:48.598Z,27.13
2023-03-06T02:29:23.020Z,25.08
2023-03-06T02:31:50.754Z,26.15
2023-03-06T02:34:21.113Z,28.40
2023-03-06T02:36:52.515Z,30.35
2023-03-06T02:39:23.049Z,27.25
2023-03-06T02:41:50.347Z,24.23
2023-03-06T02:44:19.116Z,30.80
2023-03-06T02:46:46.327Z,44.95
2023-03-06T02:49:13.624Z,38.30
2023-03-06T02:51:41.177Z,38.90
2023-03-06T02:54:09.886Z,30.77
2023-03-06T02:56:37.238Z,27.92
2023-03-06T02:59:04.745Z,27.65
2023-03-06T03:01:32.450Z,27.98
2023-03-06T03:03:59.722Z,28.13
2023-03-06T03:06:27.770Z,27.38
2023-03-06T03:08:55.180Z,27.67
2023-03-06T03:11:22.992Z,31.10
2023-03-06T03:13:50.316Z,30.00
2023-03-06T03:16:22.840Z,30.77
2023-03-06T03:18:51.735Z,30.23
2023-03-06T03:21:22.005Z,27.42
2023-03-06T03:23:50.110Z,28.02
2023-03-06T03:26:21.225Z,26.83
2023-03-06T03:28:55.329Z,25.42
2023-03-06T03:31:22.921Z,29.17
2023-03-06T03:33:50.863Z,24.02
2023-03-06T03:36:19.711Z,30.65
2023-03-06T03:38:48.112Z,28.88
2023-03-06T03:41:15.586Z,27.85
2023-03-06T03:43:43.581Z,30.80
2023-03-06T03:46:11.346Z,28.48
2023-03-06T03:48:39.130Z,36.75
2023-03-06T03:51:13.472Z,23.48
2023-03-06T03:53:45.674Z,26.40
2023-03-06T03:56:15.685Z,30.45
2023-03-06T03:58:52.148Z,25.80
2023-03-06T04:01:20.387Z,25.02
2023-03-06T04:03:48.345Z,25.95
2023-03-06T04:06:17.535Z,29.42
2023-03-06T04:08:45.652Z,30.95
2023-03-06T04:11:13.002Z,27.25
2023-03-06T04:13:40.271Z,30.65
2023-03-06T04:16:08.351Z,24.88
2023-03-06T04:18:38.148Z,32.53
2023-03-06T04:21:06.841Z,30.77
2023-03-06T04:23:34.164Z,37.83
2023-03-06T04:26:01.666Z,37.63
2023-03-06T04:28:29.210Z,32.08
2023-03-06T04:30:57.349Z,30.70
2023-03-06T04:33:25.301Z,30.58
2023-03-06T04:35:52.816Z,29.52
2023-03-06T04:38:25.477Z,29.70
2023-03-06T04:40:52.978Z,31.95
2023-03-06T04:43:20.230Z,35.00
2023-03-06T04:45:48.154Z,33.30
2023-03-06T04:48:17.581Z,42.80
2023-03-06T04:50:45.610Z,42.30
2023-03-06T04:53:14.875Z,38.20
2023-03-06T04:55:42.293Z,40.08
2023-03-06T04:58:12.541Z,43.17
2023-03-06T05:00:39.977Z,41.95
2023-03-06T05:03:16.699Z,36.90
2023-03-06T05:05:51.560Z,39.13
2023-03-06T05:08:38.773Z,38.22
2023-03-06T05:11:13.848Z,45.35
2023-03-06T05:13:44.875Z,38.58
2023-03-06T05:16:17.264Z,61.58
2023-03-06T05:18:51.863Z,51.05
2023-03-06T05:21:23.793Z,40.40
2023-03-06T05:26:38.236Z,34.30
2023-03-06T05:31:55.747Z,31.98
2023-03-06T05:34:25.800Z,39.22
2023-03-06T05:37:18.681Z,38.75
2023-03-06T05:39:57.993Z,38.67
2023-03-06T05:42:32.209Z,36.88
2023-03-06T05:45:03.004Z,39.15
2023-03-06T05:47:35.283Z,39.38
2023-03-06T05:50:08.411Z,42.90
2023-03-06T05:52:38.179Z,36.85
2023-03-06T05:55:06.746Z,43.35
2023-03-06T05:57:34.154Z,34.17
2023-03-06T06:00:01.407Z,41.38
2023-03-06T06:02:29.910Z,39.88
2023-03-06T06:04:57.891Z,48.67
2023-03-06T06:07:26.556Z,38.78
2023-03-06T06:09:54.687Z,41.38
2023-03-06T06:12:23.258Z,50.65
2023-03-06T06:14:50.410Z,40.92
2023-03-06T06:17:17.718Z,52.45
2023-03-06T06:19:47.898Z,77.10
2023-03-06T06:22:15.232Z,67.55
2023-03-06T06:24:42.799Z,49.30
2023-03-06T06:27:10.589Z,38.17
2023-03-06T06:29:39.234Z,52.03
2023-03-06T06:32:06.848Z,130.55
2023-03-06T06:34:35.006Z,95.50
2023-03-06T06:37:02.262Z,45.17
2023-03-06T06:39:31.261Z,39.63
2023-03-06T06:42:26.644Z,37.33
2023-03-06T06:47:23.961Z,73.68
2023-03-06T06:49:53.045Z,67.10
2023-03-06T06:52:20.692Z,59.58
2023-03-06T06:54:48.835Z,57.40
2023-03-06T06:57:19.064Z,48.67
2023-03-06T06:59:48.113Z,42.15
2023-03-06T07:02:16.812Z,42.45
2023-03-06T07:05:02.109Z,40.83
2023-03-06T07:07:30.837Z,38.90
2023-03-06T07:09:57.953Z,40.53
2023-03-06T07:12:25.334Z,45.17
2023-03-06T07:14:53.326Z,35.85
2023-03-06T07:17:20.658Z,40.90
2023-03-06T07:19:48.456Z,38.80
2023-03-06T07:22:16.017Z,41.50
2023-03-06T07:24:43.601Z,48.17
2023-03-06T07:27:10.970Z,44.40
2023-03-06T07:29:38.476Z,56.80
2023-03-06T07:32:07.215Z,57.95
2023-03-06T07:34:34.837Z,51.40
2023-03-06T07:37:02.146Z,54.80
2023-03-06T07:39:30.517Z,79.93
2023-03-06T07:41:58.934Z,63.35
2023-03-06T07:44:26.675Z,81.90
2023-03-06T07:46:53.965Z,73.35
2023-03-06T07:49:21.181Z,90.13
2023-03-06T07:51:48.685Z,90.22
2023-03-06T07:54:16.033Z,97.78
2023-03-06T07:56:43.206Z,130.15
2023-03-06T07:59:11.668Z,108.75
2023-03-06T08:01:40.457Z,90.38
2023-03-06T08:04:07.986Z,75.57
2023-03-06T08:06:35.387Z,53.20
2023-03-06T08:09:05.898Z,52.33
2023-03-06T08:11:33.656Z,49.15
2023-03-06T08:14:00.903Z,45.08
2023-03-06T08:16:30.608Z,44.45
2023-03-06T08:18:58.381Z,45.72
2023-03-06T08:21:27.727Z,61.88
2023-03-06T08:23:55.579Z,40.70
2023-03-06T08:26:26.363Z,45.42
2023-03-06T08:28:55.676Z,46.05
2023-03-06T08:31:49.937Z,56.47
2023-03-06T08:34:20.677Z,49.10
2023-03-06T08:36:48.040Z,42.83
2023-03-06T08:39:15.257Z,42.80
2023-03-06T08:41:44.129Z,44.63
2023-03-06T08:44:12.384Z,44.00
2023-03-06T08:46:40.126Z,53.03
2023-03-06T08:49:09.224Z,52.88
2023-03-06T08:51:36.987Z,51.17
2023-03-06T08:54:06.708Z,46.35
2023-03-06T08:56:34.641Z,47.38
2023-03-06T08:59:04.256Z,45.47
2023-03-06T09:01:35.315Z,47.20
2023-03-06T09:04:08.798Z,43.28
2023-03-06T09:06:38.771Z,45.80
2023-03-06T09:09:07.845Z,44.00
2023-03-06T09:11:35.433Z,50.78
2023-03-06T09:14:03.424Z,49.50
2023-03-06T09:16:30.791Z,46.45
2023-03-06T09:18:59.064Z,47.20
2023-03-06T09:21:27.520Z,56.28
2023-03-06T09:23:55.092Z,51.03
2023-03-06T09:26:28.063Z,45.45
2023-03-06T09:29:00.818Z,45.63
2023-03-06T09:31:28.804Z,45.90
2023-03-06T09:33:59.762Z,48.75
2023-03-06T09:36:26.971Z,43.13
2023-03-06T09:38:54.347Z,44.97
2023-03-06T09:41:34.061Z,45.45
2023-03-06T09:44:38.938Z,44.72
2023-03-06T09:47:53.250Z,40.50
2023-03-06T09:50:42.526Z,41.63
2023-03-06T09:53:51.364Z,43.33
2023-03-06T09:56:31.340Z,38.50
2023-03-06T09:59:37.178Z,40.28
2023-03-06T10:02:29.851Z,40.25
2023-03-06T10:05:10.446Z,37.88
2023-03-06T10:08:35.091Z,38.00
2023-03-06T10:11:15.642Z,35.85
2023-03-06T10:16:49.458Z,37.25
2023-03-06T10:19:21.164Z,39.65
2023-03-06T10:22:01.155Z,42.15
2023-03-06T10:25:10.421Z,37.22
2023-03-06T10:27:51.337Z,37.88
2023-03-06T10:30:57.562Z,32.85
2023-03-06T10:33:37.441Z,35.20
2023-03-06T10:36:06.306Z,43.10
2023-03-06T10:38:39.112Z,40.58
2023-03-06T10:41:59.681Z,39.00
2023-03-06T10:44:29.188Z,38.08
2023-03-06T10:47:02.901Z,39.05
2023-03-06T10:52:25.118Z,38.00
2023-03-06T10:57:34.275Z,38.15
2023-03-06T11:00:26.313Z,39.92
2023-03-06T11:03:24.240Z,43.58
2023-03-06T11:06:31.427Z,37.47
2023-03-06T11:09:25.863Z,36.00
2023-03-06T11:12:17.634Z,36.78
2023-03-06T11:14:45.762Z,39.92
2023-03-06T11:17:35.904Z,37.85
2023-03-06T11:20:24.873Z,38.47
2023-03-06T11:23:06.371Z,37.90
2023-03-06T11:25:58.170Z,34.15
2023-03-06T11:28:59.029Z,34.95
2023-03-06T11:31:48.940Z,34.47
2023-03-06T11:34:53.692Z,37.67
2023-03-06T11:37:36.112Z,37.53
2023-03-06T11:40:30.553Z,33.22
2023-03-06T11:43:12.707Z,36.13
2023-03-06T11:46:02.956Z,32.13
2023-03-06T11:48:44.881Z,34.15
2023-03-06T11:51:26.537Z,29.90
2023-03-06T11:54:00.879Z,32.65
2023-03-06T11:56:55.652Z,27.77
2023-03-06T11:59:55.160Z,28.77
2023-03-06T12:02:44.634Z,27.27
2023-03-06T12:05:26.727Z,25.42
2023-03-06T12:08:08.155Z,24.95
2023-03-06T12:10:54.841Z,25.35
2023-03-06T12:13:29.816Z,25.00
2023-03-06T12:16:34.840Z,25.83
2023-03-06T12:19:39.135Z,26.08
2023-03-06T12:25:17.727Z,20.45
2023-03-06T12:31:36.733Z,20.90
2023-03-06T12:34:48.034Z,18.77
2023-03-06T12:38:01.775Z,21.70
2023-03-06T12:40:57.356Z,20.25
2023-03-06T12:43:51.328Z,17.80
2023-03-06T12:49:35.205Z,22.45
2023-03-06T12:52:29.706Z,16.75
2023-03-06T12:57:49.534Z,18.65
2023-03-06T13:01:07.181Z,20.65
2023-03-06T13:04:00.216Z,20.92
2023-03-06T13:07:04.992Z,19.93
2023-03-06T13:10:10.360Z,20.42
2023-03-06T13:16:39.184Z,18.92
2023-03-06T13:19:25.288Z,21.27
2023-03-06T13:22:04.016Z,19.55
2023-03-06T13:24:38.927Z,18.55
2023-03-06T13:27:15.585Z,17.48
2023-03-06T13:29:53.133Z,20.95
2023-03-06T13:32:33.226Z,21.42
2023-03-06T13:35:01.087Z,18.20
2023-03-06T13:37:35.630Z,21.15
2023-03-06T13:40:11.763Z,21.63
2023-03-06T13:42:43.532Z,20.20
2023-03-06T13:45:25.249Z,21.45
2023-03-06T13:48:27.327Z,19.77
2023-03-06T13:50:54.035Z,17.27
2023-03-06T13:53:24.624Z,19.33
2023-03-06T13:56:32.084Z,18.30
2023-03-06T14:00:08.222Z,21.83
2023-03-06T14:03:04.483Z,18.50
2023-03-06T14:05:47.534Z,17.98
2023-03-06T14:08:35.173Z,21.35
2023-03-06T14:11:21.818Z,18.80
2023-03-06T14:13:53.746Z,19.10
2023-03-06T14:16:49.508Z,19.55
2023-03-06T14:19:20.659Z,19.30
2023-03-06T14:21:55.289Z,19.85
2023-03-06T14:24:36.152Z,21.73
2023-03-06T14:27:22.395Z,25.25
2023-03-06T14:30:14.327Z,18.67
2023-03-06T14:32:57.810Z,19.35
2023-03-06T14:35:32.910Z,18.05
2023-03-06T14:38:10.222Z,17.08
2023-03-06T14:41:28.777Z,20.52
2023-03-06T14:44:28.306Z,18.48
2023-03-06T14:46:58.461Z,19.55
2023-03-06T14:49:34.076Z,16.05
2023-03-06T14:52:24.650Z,18.70
2023-03-06T14:54:54.120Z,19.40
2023-03-06T14:57:24.169Z,18.70
2023-03-06T15:00:01.409Z,19.17
2023-03-06T15:02:33.186Z,17.58
2023-03-06T15:05:30.189Z,18.05
2023-03-06T15:08:09.631Z,15.63
2023-03-06T15:10:39.568Z,19.23
2023-03-06T15:13:29.134Z,17.05
2023-03-06T15:16:01.880Z,21.80
2023-03-06T15:18:44.945Z,19.80
2023-03-06T15:21:19.565Z,18.43
2023-03-06T15:23:51.181Z,16.65
2023-03-06T15:26:39.521Z,15.55
2023-03-06T15:29:24.963Z,20.55
2023-03-06T15:32:22.594Z,15.45
2023-03-06T15:35:37.865Z,19.52
2023-03-06T15:38:46.679Z,16.17
2023-03-06T15:42:02.896Z,14.70
2023-03-06T15:45:10.845Z,16.20
2023-03-06T15:47:39.509Z,14.85
2023-03-06T15:50:22.533Z,16.75
2023-03-06T15:53:04.006Z,17.77
2023-03-06T15:55:34.521Z,19.05
2023-03-06T15:58:06.120Z,17.45
2023-03-06T16:04:27.115Z,15.90
2023-03-06T16:06:54.657Z,17.60
2023-03-06T16:09:23.667Z,17.60
2023-03-06T16:11:51.204Z,15.88
2023-03-06T16:14:24.978Z,16.08
2023-03-06T16:16:54.391Z,18.95
2023-03-06T16:19:26.386Z,15.40
2023-03-06T16:21:55.208Z,16.02
2023-03-06T16:24:22.433Z,15.35
2023-03-06T16:26:52.820Z,18.77
2023-03-06T16:29:32.873Z,16.27
2023-03-06T16:37:16.867Z,45.28
2023-03-06T16:40:20.254Z,19.13
2023-03-06T16:42:48.174Z,19.27
2023-03-06T16:45:16.652Z,18.65
2023-03-06T16:47:46.245Z,16.67
2023-03-06T16:50:32.004Z,24.30
2023-03-06T16:53:07.483Z,26.52
2023-03-06T16:55:35.586Z,221.07
2023-03-06T16:58:02.901Z,394.67
2023-03-06T17:00:32.249Z,58.60
2023-03-06T17:03:04.059Z,121.68
2023-03-06T17:05:36.054Z,22.43
2023-03-06T17:08:05.029Z,91.43
2023-03-06T17:10:32.797Z,61.15
2023-03-06T17:13:00.952Z,21.80
2023-03-06T17:15:28.216Z,16.95
2023-03-06T17:18:08.081Z,39.05
2023-03-06T17:20:36.717Z,17.65
2023-03-06T17:23:03.913Z,26.60
2023-03-06T17:25:55.058Z,24.08
2023-03-06T17:28:25.489Z,45.88
2023-03-06T17:30:53.568Z,17.45
2023-03-06T17:33:28.141Z,13.85
2023-03-06T17:36:03.233Z,33.17
2023-03-06T17:38:33.235Z,19.45
2023-03-06T17:41:06.430Z,51.88
2023-03-06T17:43:34.539Z,31.95
2023-03-06T17:46:08.011Z,23.45
2023-03-06T17:51:05.267Z,17.15
2023-03-06T17:53:41.890Z,15.48
2023-03-06T17:56:23.209Z,16.30
2023-03-06T17:58:51.797Z,15.30
2023-03-06T18:01:22.481Z,12.90
2023-03-06T18:03:51.699Z,16.08
2023-03-06T18:06:22.409Z,13.98
2023-03-06T18:08:52.361Z,12.73
2023-03-06T18:11:27.450Z,14.18
2023-03-06T18:13:56.800Z,11.93
2023-03-06T18:16:26.904Z,14.45
2023-03-06T18:18:55.913Z,15.52
2023-03-06T18:21:24.252Z,14.32
2023-03-06T18:23:52.725Z,11.55
2023-03-06T18:26:23.110Z,12.25
2023-03-06T18:28:55.554Z,12.95
2023-03-06T18:31:34.083Z,15.18
2023-03-06T18:34:04.607Z,12.95
2023-03-06T18:36:33.542Z,15.07
2023-03-06T18:39:04.085Z,13.55
2023-03-06T18:41:31.974Z,13.02
2023-03-06T18:44:01.236Z,14.43
2023-03-06T18:46:34.234Z,14.95
2023-03-06T18:49:01.850Z,14.27
2023-03-06T18:51:29.112Z,10.80
2023-03-06T18:54:02.267Z,15.90
2023-03-06T18:56:29.885Z,13.63
2023-03-06T18:59:00.707Z,17.15
2023-03-06T19:01:30.870Z,19.50
2023-03-06T19:04:02.850Z,19.55
2023-03-06T19:06:30.701Z,21.75
2023-03-06T19:09:02.462Z,35.58
2023-03-06T19:11:30.902Z,29.35
2023-03-06T19:13:58.653Z,25.45
2023-03-06T19:16:28.633Z,25.52
2023-03-06T19:18:57.471Z,20.30
2023-03-06T19:21:26.987Z,18.52
2023-03-06T19:23:54.844Z,26.27
2023-03-06T19:26:22.410Z,36.58
2023-03-06T19:28:50.052Z,53.55
2023-03-06T19:31:21.606Z,59.50
2023-03-06T19:33:50.573Z,54.10
2023-03-06T19:36:18.989Z,47.25
2023-03-06T19:38:52.662Z,45.05
2023-03-06T19:41:19.856Z,43.33
2023-03-06T19:43:52.401Z,39.88
2023-03-06T19:46:21.630Z,39.20
2023-03-06T19:48:57.111Z,35.42
2023-03-06T19:51:29.361Z,34.55
2023-03-06T19:54:01.541Z,28.55
2023-03-06T19:56:42.058Z,22.13
2023-03-06T19:59:24.692Z,19.77
2023-03-06T20:01:58.984Z,23.67
2023-03-06T20:07:10.391Z,29.35
2023-03-06T20:09:37.702Z,28.95
2023-03-06T20:12:07.813Z,29.80
2023-03-06T20:14:35.717Z,26.63
2023-03-06T20:17:03.256Z,20.50
2023-03-06T20:19:38.282Z,23.00
2023-03-06T20:22:14.025Z,22.13
2023-03-06T20:24:44.275Z,21.55
2023-03-06T20:27:11.701Z,18.73
2023-03-06T20:29:44.909Z,22.20
2023-03-06T20:34:57.382Z,31.80
2023-03-06T20:37:24.810Z,36.58
2023-03-06T20:39:58.161Z,39.20
2023-03-06T20:42:29.368Z,39.50
2023-03-06T20:45:09.157Z,34.78
2023-03-06T20:47:36.607Z,36.20
2023-03-06T20:50:07.847Z,34.53
2023-03-06T20:52:35.225Z,30.45
2023-03-06T20:55:11.894Z,30.95
2023-03-06T20:57:43.093Z,29.20
2023-03-06T21:00:11.608Z,32.63
2023-03-06T21:02:38.940Z,33.25
2023-03-06T21:05:07.014Z,44.22
2023-03-06T21:07:34.531Z,40.55
2023-03-06T21:10:01.697Z,40.33
2023-03-06T21:12:35.952Z,43.97
2023-03-06T21:15:07.290Z,47.58
2023-03-06T21:17:37.135Z,46.75
2023-03-06T21:20:05.984Z,44.25
2023-03-06T21:22:33.478Z,51.13
2023-03-06T21:25:03.805Z,48.00
2023-03-06T21:27:31.115Z,43.67
2023-03-06T21:29:59.521Z,49.63
2023-03-06T21:32:27.033Z,39.20
2023-03-06T21:34:59.788Z,31.13
2023-03-06T21:37:31.198Z,28.05
2023-03-06T21:40:02.065Z,26.92
2023-03-06T21:42:29.762Z,28.55
2023-03-06T21:45:01.933Z,28.88
2023-03-06T21:47:39.210Z,59.33
2023-03-06T21:50:10.176Z,64.55
2023-03-06T21:52:46.673Z,61.20
2023-03-06T21:55:14.311Z,55.60
2023-03-06T21:57:50.577Z,45.03
2023-03-06T22:00:21.009Z,42.53
2023-03-06T22:02:50.315Z,34.08
2023-03-06T22:05:17.893Z,27.25
2023-03-06T22:07:54.096Z,27.40
2023-03-06T22:10:24.204Z,28.27
2023-03-06T22:12:51.789Z,25.90
2023-03-06T22:15:20.665Z,23.70
2023-03-06T22:17:48.902Z,28.60
2023-03-06T22:20:16.208Z,29.17
2023-03-06T22:22:44.324Z,31.30
2023-03-06T22:25:21.989Z,31.95
2023-03-06T22:27:49.493Z,35.88
2023-03-06T22:30:18.111Z,38.33
2023-03-06T22:32:45.498Z,37.85
2023-03-06T22:35:18.483Z,36.95
2023-03-06T22:37:49.173Z,32.80
2023-03-06T22:40:20.132Z,48.70
2023-03-06T22:42:47.527Z,45.58
2023-03-06T22:45:15.184Z,34.42
2023-03-06T22:47:42.554Z,27.70
2023-03-06T22:50:10.770Z,28.38
2023-03-06T22:52:38.417Z,36.28
2023-03-06T22:55:09.741Z,40.90
2023-03-06T22:57:37.259Z,41.00
2023-03-06T23:00:05.356Z,40.45
2023-03-06T23:02:34.566Z,42.65
2023-03-06T23:05:06.870Z,41.28
2023-03-06T23:07:40.504Z,41.67
2023-03-06T23:12:53.686Z,36.80
2023-03-06T23:15:39.631Z,38.10
2023-03-06T23:18:43.090Z,34.22
2023-03-06T23:21:33.129Z,32.85
2023-03-06T23:24:19.004Z,36.58
2023-03-06T23:26:56.059Z,34.00
2023-03-06T23:29:24.796Z,34.50
2023-03-06T23:31:53.108Z,30.83
2023-03-06T23:34:20.351Z,28.30
2023-03-06T23:36:47.572Z,25.90
2023-03-06T23:39:15.030Z,25.65
2023-03-06T23:41:42.880Z,28.13
2023-03-06T23:44:10.059Z,24.05
2023-03-06T23:46:37.342Z,27.35
2023-03-06T23:49:08.242Z,26.33
2023-03-06T23:51:39.794Z,21.10
2023-03-06T23:54:07.357Z,27.73
2023-03-06T23:56:36.830Z,25.00
2023-03-06T23:59:04.147Z,24.50
